Time;durP1;ratioP1;P1;durP2;ratioP2;P2;SDS_P1;SDS_P2;PMS_P1;PMS_P2;Temp;Humidity;BMP_temperature;BMP_pressure;BME280_temperature;BME280_humidity;BME280_pressure;Samples;Min_cycle;Max_cycle;Signal;HPM_P1;HPM_P2
2022/04/18 00:00:48;;;;;;;4.13;2.20;;;;;;;5.44;63.18;101263.34;5032469;28;20045;-69
2022/04/18 00:03:55;;;;;;;;;;;;;;;5.31;64.13;101262.72;5033039;28;20102;-69
2022/04/18 00:06:59;;;;;;;7.35;3.67;;;;;;;5.21;64.38;101262.06;5032463;28;19920;-69
2022/04/18 00:10:03;;;;;;;5.70;2.90;;;;;;;5.27;63.86;101263.69;5032387;28;20634;-69
2022/04/18 00:13:07;;;;;;;7.45;3.70;;;;;;;5.41;63.45;101260.81;5032225;28;20052;-69
2022/04/18 00:16:11;;;;;;;6.38;3.33;;;;;;;5.22;64.09;101257.72;5032619;28;20060;-69
2022/04/18 00:19:14;;;;;;;5.28;2.47;;;;;;;5.12;64.32;101264.81;5032436;28;20096;-69
2022/04/18 00:22:18;;;;;;;4.68;2.72;;;;;;;5.03;64.82;101252.84;5032370;28;20048;-69
2022/04/18 00:25:22;;;;;;;5.45;2.63;;;;;;;5.24;64.04;101246.44;5032357;28;20056;-69
2022/04/18 00:28:26;;;;;;;8.02;2.97;;;;;;;5.03;64.79;101244.22;5032275;28;20130;-69
2022/04/18 00:31:29;;;;;;;8.07;3.20;;;;;;;5.10;64.17;101246.66;5019530;28;20068;-69
2022/04/18 00:34:32;;;;;;;5.93;2.83;;;;;;;4.97;64.85;101239.16;5032219;28;20428;-69
2022/04/18 00:37:36;;;;;;;6.03;2.85;;;;;;;4.75;65.79;101239.50;5032173;28;20108;-69
2022/04/18 00:40:40;;;;;;;6.07;2.60;;;;;;;4.82;65.72;101238.56;5032085;28;20040;-69
2022/04/18 00:43:46;;;;;;;7.55;2.90;;;;;;;4.74;65.46;101236.97;5032152;28;20503;-69
2022/04/18 00:46:50;;;;;;;4.60;3.35;;;;;;;4.77;65.42;101240.34;5032332;28;20131;-69
2022/04/18 00:49:54;;;;;;;7.70;3.90;;;;;;;5.06;64.45;101228.63;5032075;28;20102;-69
2022/04/18 00:52:57;;;;;;;;;;;;;;;4.84;64.88;101221.22;5032388;28;20043;-69
2022/04/18 00:56:01;;;;;;;;;;;;;;;4.76;65.29;101220.53;5020035;28;19919;-69
2022/04/18 00:59:05;;;;;;;6.00;2.47;;;;;;;4.77;65.26;101217.03;5031809;28;19924;-69
2022/04/18 01:02:13;;;;;;;8.55;3.88;;;;;;;4.76;64.96;101217.06;5019679;28;20064;-69
2022/04/18 01:05:16;;;;;;;9.05;4.53;;;;;;;4.68;65.59;101216.34;5019491;28;20056;-69
2022/04/18 01:08:19;;;;;;;8.82;4.88;;;;;;;4.54;65.56;101208.81;5031760;28;20037;-69
2022/04/18 01:11:23;;;;;;;8.07;4.78;;;;;;;4.69;65.42;101211.16;5010852;28;20089;-69
2022/04/18 01:15:05;;;;;;;7.57;4.13;;;;;;;4.47;65.79;101200.28;4989972;28;20571;-69
2022/04/18 01:18:29;;;;;;;6.28;3.00;;;;;;;4.40;66.02;101191.75;4992377;28;20073;-69
2022/04/18 01:21:44;;;;;;;5.10;2.22;;;;;;;4.29;65.69;101196.25;5011132;28;20552;-69
2022/04/18 01:31:54;;;;;;;5.95;2.33;;;;;;;4.26;65.61;101182.50;5011143;28;20049;-69
2022/04/18 01:34:57;;;;;;;3.85;1.80;;;;;;;4.11;66.21;101181.00;5011299;28;20563;-69
2022/04/18 01:38:02;;;;;;;4.85;1.92;;;;;;;4.01;66.40;101182.00;5011783;28;20049;-69
2022/04/18 01:41:05;;;;;;;3.63;2.00;;;;;;;3.93;67.13;101176.97;5011038;28;20421;-69
2022/04/18 01:44:08;;;;;;;9.43;2.03;;;;;;;4.28;66.00;101170.41;5012596;28;20048;-69
2022/04/18 01:47:12;;;;;;;4.03;1.52;;;;;;;4.53;64.58;101176.88;5014577;28;20045;-69
2022/04/18 01:50:15;;;;;;;;;;;;;;;4.02;66.09;101174.25;5015171;28;20071;-69
2022/04/18 01:53:18;;;;;;;6.15;1.65;;;;;;;4.02;66.49;101169.06;5015109;28;20289;-69
2022/04/18 01:56:22;;;;;;;3.90;1.70;;;;;;;3.81;67.08;101172.81;5014142;28;20539;-69
2022/04/18 01:59:25;;;;;;;4.85;1.90;;;;;;;4.05;65.61;101166.44;5025650;28;20408;-69
2022/04/18 02:02:28;;;;;;;;;;;;;;;4.17;65.77;101162.78;5014925;28;20068;-69
2022/04/18 02:05:32;;;;;;;4.75;2.15;;;;;;;3.96;66.25;101162.25;5014171;28;20284;-69
2022/04/18 02:08:35;;;;;;;6.40;1.60;;;;;;;3.96;65.73;101163.97;5013963;28;20044;-69
2022/04/18 02:11:39;;;;;;;3.55;1.90;;;;;;;3.81;66.56;101165.03;5013936;28;20053;-69
2022/04/18 02:14:43;;;;;;;4.55;1.60;;;;;;;3.74;66.70;101163.44;5013950;28;20472;-69
2022/04/18 02:17:47;;;;;;;3.97;1.65;;;;;;;3.75;66.71;101159.94;5013875;28;20053;-69
2022/04/18 02:20:51;;;;;;;4.32;2.03;;;;;;;3.64;66.59;101161.84;5014047;28;20080;-69
2022/04/18 02:23:54;;;;;;;5.22;1.60;;;;;;;3.47;67.23;101168.06;5013611;28;20041;-69
2022/04/18 02:26:58;;;;;;;;;;;;;;;3.59;67.24;101158.47;5014306;28;20458;-69
2022/04/18 02:30:03;;;;;;;10.02;1.98;;;;;;;3.80;66.10;101158.16;5025121;28;19920;-69
2022/04/18 02:33:06;;;;;;;6.38;1.92;;;;;;;3.70;66.46;101164.31;5013669;28;20539;-69
2022/04/18 02:36:10;;;;;;;2.90;1.40;;;;;;;3.57;66.80;101165.38;5013834;28;20064;-69
2022/04/18 02:39:14;;;;;;;3.58;1.40;;;;;;;3.50;67.34;101168.03;5013524;28;20084;-69
2022/04/18 02:42:20;;;;;;;4.88;1.50;;;;;;;3.48;67.13;101166.38;5014281;28;20169;-69
2022/04/18 02:45:27;;;;;;;3.03;1.50;;;;;;;3.66;66.63;101153.16;5024880;28;20044;-69
2022/04/18 02:48:52;;;;;;;5.25;1.77;;;;;;;3.96;64.67;101162.25;5013315;28;20041;-69
2022/04/18 02:51:57;;;;;;;3.30;1.80;;;;;;;3.60;65.73;101150.66;5013415;28;20132;-69
2022/04/18 02:55:01;;;;;;;6.03;1.77;;;;;;;3.46;67.02;101155.19;5023528;28;20530;-69
2022/04/18 02:58:04;;;;;;;3.25;1.38;;;;;;;3.55;66.87;101156.78;5013029;28;20567;-69
2022/04/18 03:01:11;;;;;;;3.50;1.73;;;;;;;3.56;66.59;101158.50;5013484;28;20072;-69
2022/04/18 03:04:15;;;;;;;3.53;1.80;;;;;;;3.70;66.37;101141.03;5012955;28;20048;-69
2022/04/18 03:07:19;;;;;;;4.15;1.95;;;;;;;3.78;65.93;101139.22;5012722;28;20103;-69
2022/04/18 03:11:02;;;;;;;6.22;2.83;;;;;;;3.57;66.40;101136.91;4648255;28;10000275;-69
2022/04/18 03:13:48;;;;;;;7.32;2.92;;;;;;;3.31;67.36;101132.94;4989601;28;20045;-69
2022/04/18 03:17:11;;;;;;;4.93;2.67;;;;;;;3.18;68.11;101137.41;4990681;28;20105;-69
2022/04/18 03:20:15;;;;;;;6.07;2.50;;;;;;;3.02;68.93;101121.22;4989344;28;20057;-69
2022/04/18 03:23:19;;;;;;;9.75;2.88;;;;;;;3.13;68.57;101122.88;4989742;28;20096;-69
2022/04/18 03:26:45;;;;;;;3.67;1.90;;;;;;;3.07;68.38;101112.59;4990367;28;20519;-69
2022/04/18 03:29:58;;;;;;;5.30;2.00;;;;;;;3.09;68.48;101119.44;4989402;28;20537;-69
2022/04/18 03:33:08;;;;;;;3.60;1.88;;;;;;;3.21;67.68;101121.03;4988992;28;20242;-69
2022/04/18 03:39:51;;;;;;;3.42;1.77;;;;;;;2.98;68.70;101122.16;4989119;28;20057;-69
2022/04/18 03:42:57;;;;;;;3.55;2.10;;;;;;;3.25;67.70;101118.41;4989475;28;20104;-69
2022/04/18 03:46:00;;;;;;;3.60;1.60;;;;;;;3.24;66.57;101110.66;5000511;28;20465;-69
2022/04/18 03:49:04;;;;;;;4.82;2.00;;;;;;;3.27;66.50;101113.19;4989872;28;20045;-69
2022/04/18 03:52:10;;;;;;;4.30;2.03;;;;;;;2.90;68.06;101117.94;5000316;28;20061;-69
2022/04/18 03:55:14;;;;;;;3.85;1.80;;;;;;;2.73;69.10;101123.28;4989121;28;20065;-69
2022/04/18 03:58:17;;;;;;;5.85;1.63;;;;;;;2.63;69.03;101116.50;4988569;28;20107;-69
2022/04/18 04:01:20;;;;;;;3.80;1.80;;;;;;;2.97;68.07;101115.28;4989948;28;20470;-69
2022/04/18 04:04:25;;;;;;;3.75;1.55;;;;;;;2.92;68.15;101118.78;4989054;28;20112;-69
2022/04/18 04:07:29;;;;;;;3.20;1.95;;;;;;;3.00;67.68;101114.41;4988876;28;20049;-68
2022/04/18 04:10:47;;;;;;;4.68;1.70;;;;;;;3.12;66.58;101110.78;4988128;28;20417;-69
2022/04/18 04:13:50;;;;;;;4.43;1.77;;;;;;;2.89;67.70;101109.34;5000175;28;20061;-69
2022/04/18 04:16:55;;;;;;;3.28;1.80;;;;;;;2.68;68.84;101114.72;4988606;28;20413;-69
2022/04/18 04:19:58;;;;;;;;;;;;;;;2.87;68.48;101105.94;5000451;28;20784;-69
2022/04/18 04:23:09;;;;;;;6.28;2.50;;;;;;;2.95;67.82;101098.09;4997499;28;20403;-69
2022/04/18 04:26:36;;;;;;;8.32;2.15;;;;;;;2.96;67.64;101100.63;4974101;28;20053;-69
2022/04/18 04:29:40;;;;;;;18.63;8.80;;;;;;;3.13;66.84;101104.78;4986421;28;20049;-69
2022/04/18 04:32:50;;;;;;;5.00;2.58;;;;;;;2.86;67.62;101111.94;4986699;28;20421;-69
2022/04/18 04:35:54;;;;;;;3.10;1.70;;;;;;;2.63;69.19;101119.09;4987327;28;20159;-69
2022/04/18 04:39:00;;;;;;;3.75;2.00;;;;;;;2.84;68.60;101116.31;4988289;28;20068;-69
2022/04/18 04:42:14;;;;;;;6.05;2.45;;;;;;;2.58;68.96;101113.13;4988547;28;20136;-69
2022/04/18 04:45:20;;;;;;;4.78;2.20;;;;;;;2.52;69.74;101117.47;4988060;28;20455;-69
2022/04/18 04:48:41;;;;;;;3.05;1.90;;;;;;;2.73;68.54;101124.13;4989061;28;20553;-69
2022/04/18 04:51:51;;;;;;;3.70;1.95;;;;;;;2.68;68.84;101125.06;4988364;28;20057;-69
2022/04/18 04:54:57;;;;;;;5.82;2.28;;;;;;;2.54;69.61;101127.78;4988517;28;20061;-69
2022/04/18 04:58:15;;;;;;;4.22;2.42;;;;;;;2.61;69.34;101126.84;4987471;28;20057;-69
2022/04/18 05:01:28;;;;;;;3.85;1.95;;;;;;;2.88;68.42;101123.13;4988324;28;20421;-69
2022/04/18 05:04:38;;;;;;;3.97;2.38;;;;;;;3.08;67.73;101125.47;4988080;28;20100;-69
2022/04/18 05:07:42;;;;;;;3.83;2.00;;;;;;;3.18;67.16;101126.22;4988272;28;20049;-69
2022/04/18 05:10:59;;;;;;;3.65;2.10;;;;;;;2.95;67.79;101124.78;4982572;28;20607;-69
2022/04/18 05:14:12;;;;;;;4.60;2.28;;;;;;;3.01;67.49;101118.69;4977098;28;20115;-69
2022/04/18 05:17:23;;;;;;;6.00;2.40;;;;;;;2.88;67.42;101117.97;4976918;28;20100;-69
2022/04/18 05:20:39;;;;;;;6.10;2.58;;;;;;;2.87;68.35;101115.38;4980685;28;20343;-69
2022/04/18 05:23:43;;;;;;;4.50;2.00;;;;;;;2.98;68.32;101114.41;4991794;28;20608;-69
2022/04/18 05:26:58;;;;;;;3.55;1.88;;;;;;;3.11;68.09;101115.13;4721108;28;10000830;-69
2022/04/18 05:30:04;;;;;;;5.28;2.13;;;;;;;3.19;67.29;101121.06;4991833;28;20675;-69
2022/04/18 05:33:08;;;;;;;4.55;1.80;;;;;;;3.30;67.65;101117.47;4980716;28;20137;-69
2022/04/18 05:36:23;;;;;;;3.90;1.75;;;;;;;3.24;67.65;101123.56;4982678;28;20044;-69
2022/04/18 05:39:27;;;;;;;3.90;2.10;;;;;;;3.04;68.60;101121.22;4983997;28;20553;-69
2022/04/18 05:42:31;;;;;;;7.03;3.60;;;;;;;3.15;68.73;101121.09;4996463;28;20093;-69
2022/04/18 05:45:40;;;;;;;4.70;2.00;;;;;;;3.37;68.30;101127.69;4984535;28;20049;-69
2022/04/18 05:48:49;;;;;;;3.13;1.92;;;;;;;3.47;67.58;101129.28;4984066;28;20100;-69
2022/04/18 05:51:53;;;;;;;4.60;2.20;;;;;;;3.36;68.43;101126.00;4984048;28;20084;-69
2022/04/18 05:54:56;;;;;;;5.63;2.22;;;;;;;3.35;68.62;101123.41;4984310;28;20092;-68
2022/04/18 05:57:59;;;;;;;3.55;2.25;;;;;;;3.37;68.21;101122.53;4973367;28;20049;-68
2022/04/18 06:01:03;;;;;;;3.78;2.03;;;;;;;3.57;67.79;101126.56;4992435;28;20045;-68
2022/04/18 06:04:06;;;;;;;;;;;;;;;3.83;65.95;101129.66;4981122;28;20107;-69
2022/04/18 06:07:19;;;;;;;;;;;;;;;3.88;65.00;101120.09;4349643;28;10000524;-68
2022/04/18 06:10:40;;;;;;;5.18;1.45;;;;;;;4.05;64.41;101125.03;4962170;28;19925;-69
2022/04/18 06:14:02;;;;;;;4.25;1.73;;;;;;;4.20;63.54;101123.91;4981720;28;20671;-69
2022/04/18 06:17:07;;;;;;;3.47;1.75;;;;;;;4.00;64.11;101128.56;4989913;28;20253;-69
2022/04/18 06:20:11;;;;;;;3.85;1.73;;;;;;;4.08;64.17;101121.50;4989826;28;20045;-69
2022/04/18 06:23:16;;;;;;;2.53;1.40;;;;;;;4.26;63.82;101120.38;4990771;28;20058;-69
2022/04/18 06:26:20;;;;;;;3.92;1.80;;;;;;;4.25;64.21;101116.94;4989242;28;20049;-69
2022/04/18 06:29:23;;;;;;;3.33;1.95;;;;;;;4.42;64.44;101117.47;4990349;28;20108;-69
2022/04/18 06:32:28;;;;;;;6.95;2.28;;;;;;;4.47;64.93;101112.25;4990240;28;20417;-69
2022/04/18 06:35:35;;;;;;;3.88;1.67;;;;;;;4.80;63.65;101115.94;4990077;28;20560;-69
2022/04/18 06:38:38;;;;;;;5.15;3.30;;;;;;;4.76;64.02;101116.88;4989122;28;20093;-69
2022/04/18 06:41:45;;;;;;;4.32;1.80;;;;;;;4.93;64.10;101123.47;4969174;28;20041;-69
2022/04/18 06:44:54;;;;;;;5.50;1.70;;;;;;;5.11;63.32;101108.41;4988911;28;20065;-69
2022/04/18 06:47:57;;;;;;;4.90;2.00;;;;;;;5.17;63.33;101116.94;4969746;28;20041;-69
2022/04/18 06:51:18;;;;;;;4.00;1.70;;;;;;;5.31;62.95;101113.19;4982296;28;20382;-69
2022/04/18 06:54:44;;;;;;;4.32;1.70;;;;;;;5.56;62.23;101116.09;4989198;28;20257;-69
2022/04/18 06:57:51;;;;;;;2.92;1.80;;;;;;;5.75;62.43;101111.34;4989486;28;20057;-69
2022/04/18 07:00:54;;;;;;;5.75;2.15;;;;;;;5.90;61.42;101109.28;4989328;28;20044;-69
2022/04/18 07:04:00;;;;;;;4.75;2.25;;;;;;;6.06;60.71;101105.47;4989621;28;20085;-69
2022/04/18 07:07:05;;;;;;;5.93;2.13;;;;;;;6.17;60.91;101108.66;4989346;28;20508;-69
2022/04/18 07:10:10;;;;;;;3.22;1.70;;;;;;;6.33;60.13;101108.28;4994912;28;20208;-69
2022/04/18 07:13:14;;;;;;;4.82;1.52;;;;;;;6.41;60.31;101106.31;4996631;28;20472;-69
2022/04/18 07:16:19;;;;;;;3.80;1.52;;;;;;;6.56;60.88;101100.75;4996267;28;20468;-69
2022/04/18 07:19:23;;;;;;;3.80;1.80;;;;;;;6.73;60.59;101108.94;4997601;28;20076;-69
2022/04/18 07:22:26;;;;;;;4.35;1.80;;;;;;;6.91;59.36;101101.53;5019086;28;20049;-69
2022/04/18 07:25:33;;;;;;;4.57;2.08;;;;;;;7.11;59.51;101107.00;4997588;28;20053;-69
2022/04/18 07:28:59;;;;;;;6.95;2.00;;;;;;;7.32;58.39;101097.75;4998437;28;20053;-69
2022/04/18 07:32:05;;;;;;;6.55;1.98;;;;;;;7.49;57.77;101101.59;4999770;28;20052;-69
2022/04/18 07:35:10;;;;;;;4.35;1.85;;;;;;;7.67;56.11;101094.06;5011996;28;20128;-68
2022/04/18 07:41:47;;;;;;;3.67;1.65;;;;;;;7.91;55.27;101096.78;5024105;28;20126;-69
2022/04/18 07:44:50;;;;;;;3.05;1.90;;;;;;;8.05;54.58;101089.41;5001499;28;20511;-69
2022/04/18 07:47:53;;;;;;;4.35;2.30;;;;;;;8.18;55.17;101084.63;5013271;28;20107;-69
2022/04/18 07:54:22;;;;;;;11.13;2.53;;;;;;;8.65;53.19;101073.50;5023927;28;20107;-69
2022/04/18 07:57:26;;;;;;;3.13;1.80;;;;;;;8.82;52.66;101068.53;4999976;28;20045;-69
2022/04/18 08:00:37;;;;;;;4.10;1.70;;;;;;;8.95;53.35;101071.56;5000534;28;20705;-69
2022/04/18 08:03:40;;;;;;;;;;;;;;;9.12;52.03;101071.75;5001258;28;20075;-69
2022/04/18 08:06:44;;;;;;;6.53;2.40;;;;;;;9.21;50.64;101060.97;5000989;28;19919;-72
2022/04/18 08:09:53;;;;;;;5.18;2.20;;;;;;;9.38;51.17;101065.56;5000459;28;20142;-72
2022/04/18 08:12:57;;;;;;;3.92;1.70;;;;;;;9.57;49.70;101062.22;5023161;28;20515;-72
2022/04/18 08:16:22;;;;;;;4.50;1.70;;;;;;;9.78;50.07;101064.00;5008132;28;20057;-73
2022/04/18 08:19:33;;;;;;;3.22;2.17;;;;;;;9.95;49.65;101066.75;5023301;28;20037;-72
2022/04/18 08:22:36;;;;;;;5.85;1.80;;;;;;;9.95;48.09;101064.13;5011579;28;20503;-72
2022/04/18 08:25:59;;;;;;;3.70;2.03;;;;;;;10.05;47.64;101066.38;5012431;28;20076;-73
2022/04/18 08:29:25;;;;;;;3.90;1.77;;;;;;;10.17;46.81;101060.66;5000687;28;20041;-71
2022/04/18 08:33:01;;;;;;;6.00;2.08;;;;;;;10.30;47.04;101056.63;5012532;28;20049;-71
2022/04/18 08:36:04;;;;;;;4.63;1.85;;;;;;;10.32;46.26;101052.19;5012410;28;20057;-71
2022/04/18 08:39:11;;;;;;;5.55;1.90;;;;;;;10.29;46.13;101054.09;5012252;28;20500;-71
2022/04/18 08:42:25;;;;;;;4.18;1.80;;;;;;;10.34;45.83;101050.38;5000003;28;20041;-71
2022/04/18 08:45:29;;;;;;;5.88;2.30;;;;;;;10.58;45.64;101044.97;4989145;28;20507;-71
2022/04/18 08:55:32;;;;;;;6.28;1.73;;;;;;;10.79;45.37;101040.56;5003829;28;20111;-71
2022/04/18 08:58:41;;;;;;;5.20;1.75;;;;;;;10.81;45.49;101042.19;5003927;28;20052;-71
2022/04/18 09:01:50;;;;;;;3.63;1.73;;;;;;;10.77;43.55;101035.41;5003891;28;20087;-71
2022/04/18 09:04:58;;;;;;;8.07;1.98;;;;;;;10.97;43.77;101029.25;5026726;28;20096;-71
2022/04/18 09:08:03;;;;;;;;;;;;;;;11.52;43.73;101029.31;5004443;28;20049;-71
2022/04/18 09:11:11;;;;;;;4.05;1.88;;;;;;;11.56;43.91;101033.47;4995244;28;19925;-71
2022/04/18 09:14:16;;;;;;;5.13;2.00;;;;;;;11.57;44.41;101026.44;4995543;28;20073;-71
2022/04/18 09:17:32;;;;;;;4.45;1.70;;;;;;;11.48;43.50;101019.03;4995442;28;20049;-72
2022/04/18 09:21:04;;;;;;;4.07;1.75;;;;;;;11.64;42.67;101022.59;4995285;28;20128;-71
2022/04/18 09:24:31;;;;;;;3.85;1.60;;;;;;;11.62;42.32;101019.22;4995207;28;20452;-71
2022/04/18 09:27:53;;;;;;;8.20;2.05;;;;;;;11.66;42.33;101012.91;4995107;28;20679;-71
2022/04/18 09:30:59;;;;;;;5.18;1.70;;;;;;;11.86;41.62;100999.69;4994504;28;20052;-71
2022/04/18 09:34:02;;;;;;;6.13;2.28;;;;;;;11.85;41.64;101003.25;4994848;28;20539;-71
2022/04/18 09:37:17;;;;;;;7.93;2.33;;;;;;;11.74;39.93;100989.81;4995774;28;20054;-71
2022/04/18 09:40:24;;;;;;;3.95;1.48;;;;;;;12.01;40.70;100995.47;4994718;28;20141;-71
2022/04/18 09:43:37;;;;;;;4.13;1.77;;;;;;;12.10;39.34;100988.91;4994008;28;20053;-71
2022/04/18 09:46:41;;;;;;;5.13;2.67;;;;;;;11.97;37.90;100990.47;4995929;28;20096;-71
2022/04/18 09:49:51;;;;;;;5.43;2.10;;;;;;;12.54;39.99;100980.50;4995801;28;20125;-72
2022/04/18 09:53:03;;;;;;;4.13;2.25;;;;;;;12.82;38.49;100968.50;5004418;28;20049;-69
2022/04/18 09:56:07;;;;;;;5.80;1.95;;;;;;;12.96;39.74;100964.22;4995026;28;20093;-69
2022/04/18 09:59:15;;;;;;;3.65;1.95;;;;;;;13.12;40.51;100968.63;4995070;28;20140;-75
2022/04/18 10:02:20;;;;;;;6.40;2.13;;;;;;;13.58;39.19;100956.34;4995590;28;20058;-82
2022/04/18 10:05:27;;;;;;;12.73;5.57;;;;;;;13.71;38.84;100957.31;4996065;28;20077;-77
2022/04/18 10:08:31;;;;;;;9.05;3.30;;;;;;;13.76;37.76;100948.34;4996281;28;20077;-78
2022/04/18 10:11:38;;;;;;;8.23;2.78;;;;;;;13.74;37.13;100935.28;5014257;28;20180;-77
2022/04/18 10:14:42;;;;;;;7.07;2.53;;;;;;;13.95;35.88;100938.44;5015197;28;20104;-79
2022/04/18 10:17:46;;;;;;;5.78;1.95;;;;;;;13.81;33.16;100926.09;5013997;28;20045;-80
2022/04/18 10:21:08;;;;;;;5.13;2.53;;;;;;;13.96;32.99;100924.34;5014573;28;20080;-82
2022/04/18 10:24:39;;;;;;;6.05;3.53;;;;;;;14.19;33.08;100920.31;5014246;28;20080;-83
2022/04/18 10:28:10;;;;;;;6.85;2.30;;;;;;;14.29;34.22;100910.91;5014852;28;20052;-81
2022/04/18 10:31:26;;;;;;;4.97;2.17;;;;;;;14.33;35.52;100909.81;5014468;28;20045;-87
2022/04/18 10:34:34;;;;;;;4.18;2.13;;;;;;;14.76;34.93;100915.03;5013118;28;20061;-80
2022/04/18 10:37:42;;;;;;;3.50;1.88;;;;;;;14.81;34.52;100905.06;5015186;28;20089;-78
2022/04/18 10:40:45;;;;;;;5.60;2.42;;;;;;;14.85;34.23;100898.66;5012773;28;20187;-82
2022/04/18 10:44:01;;;;;;;5.97;2.28;;;;;;;14.82;33.31;100890.09;5009221;28;20124;-72
2022/04/18 10:47:05;;;;;;;4.03;2.20;;;;;;;14.68;34.33;100890.13;5011633;28;20053;-75
2022/04/18 10:50:17;;;;;;;5.43;2.10;;;;;;;14.69;34.52;100897.09;5009131;28;20053;-72
2022/04/18 10:53:26;;;;;;;6.32;2.50;;;;;;;14.44;32.67;100880.19;4999040;28;20516;-69
2022/04/18 10:56:50;;;;;;;5.75;2.28;;;;;;;14.61;33.57;100877.38;5008668;28;20091;-69
2022/04/18 10:59:54;;;;;;;3.35;1.92;;;;;;;14.74;33.52;100873.94;5008774;28;20060;-69
2022/04/18 11:02:57;;;;;;;5.43;1.88;;;;;;;14.93;35.00;100869.19;5012325;28;20064;-69
2022/04/18 11:06:07;;;;;;;6.38;2.50;;;;;;;15.24;34.14;100869.81;5013388;28;20133;-69
2022/04/18 11:09:13;;;;;;;7.18;2.42;;;;;;;14.97;32.87;100865.44;5013703;28;20499;-68
2022/04/18 11:12:17;;;;;;;6.25;2.17;;;;;;;14.88;32.83;100855.50;5013795;28;20512;-68
2022/04/18 11:15:21;;;;;;;5.78;1.90;;;;;;;14.93;33.07;100852.53;5013600;28;20188;-68
2022/04/18 11:18:34;;;;;;;4.65;2.33;;;;;;;15.09;32.36;100853.22;5013869;28;20049;-68
2022/04/18 11:25:00;;;;;;;3.83;2.05;;;;;;;15.15;33.46;100841.44;5001383;28;20412;-69
2022/04/18 11:28:04;;;;;;;3.53;2.10;;;;;;;15.11;32.63;100840.81;5013782;28;20511;-68
2022/04/18 11:31:17;;;;;;;5.03;2.42;;;;;;;15.27;33.11;100832.72;5013413;28;20119;-69
2022/04/18 11:34:24;;;;;;;;;;;;;;;15.55;32.99;100835.19;5013798;28;20060;-69
2022/04/18 11:37:33;;;;;;;3.78;2.22;;;;;;;15.67;33.49;100830.06;5013310;28;19924;-69
2022/04/18 11:40:39;;;;;;;5.40;2.53;;;;;;;15.80;32.13;100823.00;5013171;28;20053;-69
2022/04/18 11:43:43;;;;;;;4.28;2.28;;;;;;;15.80;31.74;100820.38;5013146;28;20115;-69
2022/04/18 11:46:47;;;;;;;3.20;1.73;;;;;;;15.87;32.30;100818.97;5013508;28;20088;-69
2022/04/18 11:50:01;;;;;;;3.15;1.70;;;;;;;16.03;32.41;100821.38;5013198;28;20180;-69
2022/04/18 11:53:08;;;;;;;7.35;3.15;;;;;;;16.01;30.93;100823.28;5012530;28;20049;-69
2022/04/18 11:56:12;;;;;;;3.50;2.00;;;;;;;16.01;32.18;100820.66;5012967;28;20049;-69
2022/04/18 11:59:20;;;;;;;4.40;2.15;;;;;;;15.90;32.77;100817.94;5012971;28;20508;-69
2022/04/18 12:09:17;;;;;;;5.95;1.90;;;;;;;15.95;30.63;100806.13;5012139;28;20495;-70
2022/04/18 12:12:29;;;;;;;5.97;1.77;;;;;;;16.09;32.95;100801.66;5012633;28;20408;-69
2022/04/18 12:15:36;;;;;;;11.85;2.35;;;;;;;16.12;31.95;100798.81;5012666;28;20542;-69
2022/04/18 12:18:40;;;;;;;3.30;1.90;;;;;;;16.31;30.78;100801.81;5012992;28;20092;-69
2022/04/18 12:21:50;;;;;;;3.80;2.30;;;;;;;16.08;29.02;100786.75;5011455;28;20096;-69
2022/04/18 12:24:59;;;;;;;3.45;1.90;;;;;;;16.36;29.99;100783.00;5001518;28;20049;-68
2022/04/18 12:28:05;;;;;;;4.90;1.55;;;;;;;16.60;28.58;100778.56;5012332;28;20052;-68
2022/04/18 12:31:10;;;;;;;4.47;1.83;;;;;;;16.84;29.25;100770.66;5013282;28;20136;-68
2022/04/18 12:34:18;;;;;;;2.45;1.30;;;;;;;17.32;29.52;100778.47;5013195;28;20072;-68
2022/04/18 12:37:25;;;;;;;3.42;1.70;;;;;;;17.63;28.91;100768.19;5013295;28;20432;-68
2022/04/18 12:40:39;;;;;;;3.75;1.73;;;;;;;18.05;28.58;100761.31;5000490;28;20052;-68
2022/04/18 12:43:43;;;;;;;3.45;1.42;;;;;;;18.14;27.53;100762.41;5012494;28;20496;-69
2022/04/18 12:46:46;;;;;;;2.90;1.30;;;;;;;17.88;27.08;100757.38;5012484;28;20470;-68
2022/04/18 12:50:13;;;;;;;3.47;1.40;;;;;;;18.75;26.46;100754.78;5012291;28;20117;-68
2022/04/18 12:53:18;;;;;;;5.03;1.60;;;;;;;18.71;25.36;100737.44;5012337;28;20507;-68
2022/04/18 12:56:24;;;;;;;3.22;1.30;;;;;;;18.99;26.75;100727.22;5012232;28;20054;-69
2022/04/18 12:59:30;;;;;;;2.95;1.30;;;;;;;18.30;25.73;100723.13;5012023;28;20045;-68
2022/04/18 13:02:34;;;;;;;3.20;1.30;;;;;;;19.10;26.08;100724.47;5012084;28;20048;-68
2022/04/18 13:05:45;;;;;;;3.15;1.45;;;;;;;19.36;24.86;100711.63;5000050;28;20068;-68
2022/04/18 13:08:49;;;;;;;3.70;1.30;;;;;;;19.20;25.40;100722.72;5012138;28;20043;-69
2022/04/18 13:12:02;;;;;;;9.07;1.27;;;;;;;19.99;25.22;100703.50;5012077;28;20131;-68
2022/04/18 13:15:07;;;;;;;2.95;1.15;;;;;;;20.09;24.90;100704.38;5011987;28;20106;-67
2022/04/18 13:18:12;;;;;;;3.75;1.20;;;;;;;20.24;25.38;100702.16;5010299;28;20100;-67
2022/04/18 13:21:16;;;;;;;5.68;1.48;;;;;;;20.64;25.64;100698.53;5010970;28;20040;-67
2022/04/18 13:24:19;;;;;;;4.65;1.63;;;;;;;20.86;23.65;100692.09;5012501;28;20096;-68
2022/04/18 13:27:27;;;;;;;3.65;1.00;;;;;;;21.18;23.89;100690.91;5011411;28;20045;-68
2022/04/18 13:30:32;;;;;;;3.75;1.77;;;;;;;21.28;22.39;100681.91;5011833;28;20096;-69
2022/04/18 13:33:35;;;;;;;3.88;1.25;;;;;;;21.82;22.05;100680.28;5012288;28;20401;-68
2022/04/18 13:36:40;;;;;;;5.53;1.25;;;;;;;22.71;20.99;100665.31;5012914;28;20192;-69
2022/04/18 13:39:47;;;;;;;2.40;1.20;;;;;;;24.01;18.82;100669.66;5012174;28;20547;-68
2022/04/18 13:42:50;;;;;;;4.20;1.30;;;;;;;26.07;16.86;100658.34;5015448;28;20076;-69
2022/04/18 13:45:54;;;;;;;3.13;1.23;;;;;;;30.23;14.67;100648.56;5015273;28;20508;-70
2022/04/18 13:48:58;;;;;;;5.88;1.83;;;;;;;31.20;12.71;100649.69;5011803;28;20052;-70
2022/04/18 13:52:03;;;;;;;3.38;1.30;;;;;;;31.40;13.17;100638.03;5010838;28;20048;-74
2022/04/18 13:55:09;;;;;;;5.38;1.40;;;;;;;32.67;11.10;100641.56;5012919;28;20053;-71
2022/04/18 13:58:13;;;;;;;4.80;1.45;;;;;;;31.26;11.76;100643.44;5009523;28;20052;-71
2022/04/18 14:01:17;;;;;;;3.08;1.52;;;;;;;31.53;11.43;100627.19;4989574;28;20105;-71
2022/04/18 14:04:21;;;;;;;2.40;1.05;;;;;;;34.62;9.88;100635.09;4991079;28;20173;-71
2022/04/18 14:07:25;;;;;;;2.47;1.30;;;;;;;33.99;10.65;100631.03;4991348;28;20172;-71
2022/04/18 14:10:29;;;;;;;2.08;1.27;;;;;;;28.80;13.53;100619.75;5001544;28;20061;-71
2022/04/18 14:13:32;;;;;;;6.53;1.75;;;;;;;33.31;10.32;100617.78;5011270;28;20048;-71
2022/04/18 14:23:19;;;;;;;2.58;1.63;;;;;;;34.28;9.56;100598.69;5010299;28;20521;-71
2022/04/18 14:26:25;;;;;;;3.40;1.42;;;;;;;35.31;9.19;100597.16;5010182;28;20089;-71
2022/04/18 14:29:28;;;;;;;2.25;1.23;;;;;;;33.26;10.06;100599.50;5010111;28;20107;-71
2022/04/18 14:32:32;;;;;;;3.67;1.80;;;;;;;32.95;10.46;100592.34;5009134;28;20524;-71
2022/04/18 14:35:36;;;;;;;3.25;1.35;;;;;;;34.75;9.32;100587.84;4990753;28;20505;-71
2022/04/18 14:38:39;;;;;;;2.72;1.30;;;;;;;35.53;8.16;100585.63;4990751;28;20116;-72
2022/04/18 14:41:43;;;;;;;2.70;1.02;;;;;;;35.44;8.05;100579.72;4989769;28;20525;-71
2022/04/18 14:44:46;;;;;;;4.45;1.20;;;;;;;35.51;8.12;100583.13;4978273;28;20100;-71
2022/04/18 14:47:50;;;;;;;3.80;1.48;;;;;;;33.47;9.56;100579.22;4991342;28;20045;-71
2022/04/18 14:50:56;;;;;;;2.50;1.50;;;;;;;34.72;9.58;100578.28;4990046;28;20409;-71
2022/04/18 14:53:59;;;;;;;2.92;1.20;;;;;;;34.31;9.02;100579.22;4990631;28;20089;-71
2022/04/18 14:57:04;;;;;;;3.38;1.20;;;;;;;34.54;9.18;100577.59;4989890;28;20159;-71
2022/04/18 15:00:08;;;;;;;2.00;1.10;;;;;;;35.31;8.57;100575.41;4990113;28;20088;-71
2022/04/18 15:03:12;;;;;;;4.50;1.20;;;;;;;31.15;9.45;100586.59;5009288;28;20123;-71
2022/04/18 15:06:19;;;;;;;2.95;1.30;;;;;;;32.91;9.17;100569.47;4990270;28;20105;-71
2022/04/18 15:09:23;;;;;;;2.33;1.05;;;;;;;33.78;9.05;100578.16;4999569;28;20583;-72
2022/04/18 15:12:27;;;;;;;2.35;1.20;;;;;;;35.33;8.12;100562.41;5009857;28;20148;-71
2022/04/18 15:15:31;;;;;;;2.45;0.93;;;;;;;34.40;8.54;100564.22;5000720;28;20211;-71
2022/04/18 15:18:35;;;;;;;2.03;0.80;;;;;;;34.21;8.35;100557.25;4992637;28;20160;-69
2022/04/18 15:21:39;;;;;;;3.42;1.10;;;;;;;33.99;9.33;100554.25;4992676;28;20093;-69